createdAt,value
2024-01-20T00:02:02.013Z,-2.40
2024-01-20T00:04:36.606Z,-2.40
2024-01-20T00:07:07.096Z,-2.20
2024-01-20T00:09:42.858Z,-2.20
2024-01-20T00:12:19.016Z,-2.10
2024-01-20T00:14:48.373Z,-2.00
2024-01-20T00:17:23.778Z,-1.80
2024-01-20T00:19:56.288Z,-1.70
2024-01-20T00:22:27.403Z,-1.60
2024-01-20T00:24:57.358Z,-1.50
2024-01-20T00:27:26.752Z,-1.40
2024-01-20T00:29:55.810Z,-1.40
2024-01-20T00:32:24.801Z,-1.30
2024-01-20T00:35:04.046Z,-1.20
2024-01-20T00:37:37.668Z,-1.20
2024-01-20T00:40:07.856Z,-1.10
2024-01-20T00:42:37.329Z,-1.10
2024-01-20T00:45:06.675Z,-1.00
2024-01-20T00:47:36.871Z,-1.00
2024-01-20T00:50:11.769Z,-0.90
2024-01-20T00:52:42.022Z,-0.90
2024-01-20T00:55:11.812Z,-0.90
2024-01-20T00:57:40.463Z,-0.90
2024-01-20T01:00:10.885Z,-0.90
2024-01-20T01:02:40.094Z,-0.90
2024-01-20T01:05:09.707Z,-0.90
2024-01-20T01:07:39.095Z,-0.90
2024-01-20T01:10:10.140Z,-0.80
2024-01-20T01:12:38.868Z,-0.80
2024-01-20T01:15:08.315Z,-0.70
2024-01-20T01:17:37.240Z,-0.70
2024-01-20T01:20:06.895Z,-0.80
2024-01-20T01:22:35.650Z,-0.70
2024-01-20T01:25:05.308Z,-0.70
2024-01-20T01:27:35.397Z,-0.70
2024-01-20T01:30:04.286Z,-0.80
2024-01-20T01:32:33.048Z,-0.70
2024-01-20T01:35:04.760Z,-0.70
2024-01-20T01:37:33.718Z,-0.70
2024-01-20T01:40:02.282Z,-0.60
2024-01-20T01:42:30.962Z,-0.60
2024-01-20T01:45:01.144Z,-0.60
2024-01-20T01:47:30.157Z,-0.50
2024-01-20T01:49:59.133Z,-0.50
2024-01-20T01:52:29.040Z,-0.50
2024-01-20T01:54:59.083Z,-0.50
2024-01-20T01:57:28.440Z,-0.40
2024-01-20T01:59:57.859Z,-0.40
2024-01-20T02:02:27.973Z,-0.40
2024-01-20T02:04:56.750Z,-0.40
2024-01-20T02:07:25.412Z,-0.40
2024-01-20T02:09:54.227Z,-0.40
2024-01-20T02:12:23.609Z,-0.40
2024-01-20T02:14:52.645Z,-0.40
2024-01-20T02:17:21.608Z,-0.40
2024-01-20T02:19:51.844Z,-0.40
2024-01-20T02:22:22.518Z,-0.40
2024-01-20T02:24:52.166Z,-0.30
2024-01-20T02:27:21.729Z,-0.30
2024-01-20T02:29:50.514Z,-0.30
2024-01-20T02:32:19.503Z,-0.30
2024-01-20T02:34:48.198Z,-0.20
2024-01-20T02:37:17.047Z,-0.20
2024-01-20T02:39:47.119Z,-0.20
2024-01-20T02:42:16.099Z,-0.20
2024-01-20T02:44:44.894Z,-0.20
2024-01-20T02:47:13.494Z,-0.20
2024-01-20T02:49:42.561Z,-0.20
2024-01-20T02:52:11.345Z,-0.10
2024-01-20T02:54:40.145Z,-0.10
2024-01-20T02:57:10.519Z,-0.10
2024-01-20T02:59:39.181Z,-0.10
2024-01-20T03:02:08.148Z,0.00
2024-01-20T03:04:36.904Z,-0.10
2024-01-20T03:07:05.783Z,-0.10
2024-01-20T03:09:34.773Z,0.00
2024-01-20T03:12:03.737Z,0.00
2024-01-20T03:14:33.888Z,0.10
2024-01-20T03:17:02.638Z,0.10
2024-01-20T03:19:31.366Z,0.10
2024-01-20T03:22:00.211Z,0.10
2024-01-20T03:24:28.918Z,0.10
2024-01-20T03:26:59.900Z,0.10
2024-01-20T03:29:28.782Z,0.10
2024-01-20T03:31:59.099Z,0.10
2024-01-20T03:34:28.004Z,0.10
2024-01-20T03:36:56.697Z,0.20
2024-01-20T03:39:25.394Z,0.20
2024-01-20T03:41:54.060Z,0.20
2024-01-20T03:44:23.116Z,0.10
2024-01-20T03:46:51.803Z,0.10
2024-01-20T03:49:21.991Z,0.00
2024-01-20T03:51:50.771Z,0.00
2024-01-20T03:54:19.431Z,0.00
2024-01-20T03:56:48.078Z,0.00
2024-01-20T03:59:16.779Z,0.00
2024-01-20T04:01:45.490Z,0.00
2024-01-20T04:04:14.162Z,0.00
2024-01-20T04:06:44.332Z,0.10
2024-01-20T04:09:13.419Z,0.10
2024-01-20T04:11:42.103Z,0.10
2024-01-20T04:14:10.802Z,0.10
2024-01-20T04:16:39.628Z,0.10
2024-01-20T04:19:08.402Z,0.10
2024-01-20T04:21:37.132Z,0.10
2024-01-20T04:24:07.631Z,0.10
2024-01-20T04:26:36.340Z,0.10
2024-01-20T04:29:04.998Z,0.10
2024-01-20T04:31:33.627Z,0.10
2024-01-20T04:34:02.298Z,0.10
2024-01-20T04:36:31.090Z,0.10
2024-01-20T04:38:59.738Z,0.00
2024-01-20T04:41:30.209Z,0.00
2024-01-20T04:43:58.847Z,-0.10
2024-01-20T04:46:27.542Z,-0.10
2024-01-20T04:48:56.407Z,-0.10
2024-01-20T04:51:25.769Z,-0.20
2024-01-20T04:53:53.421Z,-0.20
2024-01-20T04:56:24.012Z,-0.30
2024-01-20T04:58:56.439Z,-0.30
2024-01-20T05:01:25.206Z,-0.30
2024-01-20T05:03:54.425Z,-0.30
2024-01-20T05:06:23.700Z,-0.30
2024-01-20T05:08:52.645Z,-0.30
2024-01-20T05:11:21.276Z,-0.30
2024-01-20T05:13:49.910Z,-0.30
2024-01-20T05:16:20.539Z,-0.30
2024-01-20T05:18:50.227Z,-0.40
2024-01-20T05:21:19.261Z,-0.40
2024-01-20T05:23:48.119Z,-0.40
2024-01-20T05:26:17.019Z,-0.40
2024-01-20T05:28:45.898Z,-0.40
2024-01-20T05:31:15.348Z,-0.50
2024-01-20T05:33:45.610Z,-0.40
2024-01-20T05:36:15.047Z,-0.40
2024-01-20T05:38:43.860Z,-0.50
2024-01-20T05:41:14.195Z,-0.40
2024-01-20T05:43:42.971Z,-0.50
2024-01-20T05:46:11.809Z,-0.50
2024-01-20T05:48:40.580Z,-0.50
2024-01-20T05:51:10.762Z,-0.50
2024-01-20T05:53:39.395Z,-0.50
2024-01-20T05:56:08.485Z,-0.50
2024-01-20T05:58:37.110Z,-0.50
2024-01-20T06:01:06.114Z,-0.50
2024-01-20T06:03:34.850Z,-0.50
2024-01-20T06:06:03.558Z,-0.50
2024-01-20T06:08:33.909Z,-0.50
2024-01-20T06:11:02.508Z,-0.50
2024-01-20T06:13:31.326Z,-0.50
2024-01-20T06:19:45.866Z,-0.50
2024-01-20T06:22:14.546Z,-0.50
2024-01-20T06:24:44.820Z,-0.50
2024-01-20T06:27:14.159Z,-0.50
2024-01-20T06:29:49.648Z,-0.50
2024-01-20T06:32:18.802Z,-0.50
2024-01-20T06:34:47.644Z,-0.50
2024-01-20T06:37:16.425Z,-0.50
2024-01-20T06:39:46.573Z,-0.50
2024-01-20T06:42:16.247Z,-0.50
2024-01-20T06:48:35.526Z,-0.40
2024-01-20T06:51:04.808Z,-0.50
2024-01-20T06:53:33.973Z,-0.50
2024-01-20T06:56:04.025Z,-0.50
2024-01-20T06:58:32.641Z,-0.40
2024-01-20T07:01:01.343Z,-0.50
2024-01-20T07:03:30.245Z,-0.40
2024-01-20T07:06:02.195Z,-0.40
2024-01-20T07:08:31.552Z,-0.40
2024-01-20T07:11:00.177Z,-0.50
2024-01-20T07:13:30.230Z,-0.40
2024-01-20T07:15:58.857Z,-0.40
2024-01-20T07:18:27.546Z,-0.40
2024-01-20T07:20:56.313Z,-0.30
2024-01-20T07:23:24.997Z,-0.40
2024-01-20T07:25:53.701Z,-0.30
2024-01-20T07:28:22.540Z,-0.30
2024-01-20T07:30:52.723Z,-0.30
2024-01-20T07:33:21.663Z,-0.30
2024-01-20T07:35:50.296Z,-0.30
2024-01-20T07:38:18.951Z,-0.20
2024-01-20T07:40:47.560Z,-0.30
2024-01-20T07:43:16.791Z,-0.30
2024-01-20T07:45:45.469Z,-0.20
2024-01-20T07:48:16.328Z,-0.20
2024-01-20T07:50:45.032Z,-0.10
2024-01-20T07:53:13.653Z,-0.10
2024-01-20T07:55:42.404Z,-0.10
2024-01-20T07:58:10.991Z,-0.10
2024-01-20T08:00:39.903Z,-0.10
2024-01-20T08:03:08.660Z,-0.10
2024-01-20T08:05:39.026Z,0.00
2024-01-20T08:08:08.139Z,0.00
2024-01-20T08:10:36.706Z,0.00
2024-01-20T08:13:05.863Z,0.10
2024-01-20T08:15:34.524Z,0.10
2024-01-20T08:18:03.357Z,0.10
2024-01-20T08:20:32.132Z,0.10
2024-01-20T08:23:02.850Z,0.10
2024-01-20T08:25:31.544Z,0.10
2024-01-20T08:28:00.192Z,0.10
2024-01-20T08:30:29.157Z,0.20
2024-01-20T08:33:01.492Z,0.30
2024-01-20T08:35:32.024Z,0.20
2024-01-20T08:38:02.119Z,0.30
2024-01-20T08:40:30.826Z,0.30
2024-01-20T08:43:00.246Z,0.40
2024-01-20T08:45:28.937Z,0.40
2024-01-20T08:47:58.023Z,0.40
2024-01-20T08:50:26.730Z,0.40
2024-01-20T08:52:55.605Z,0.40
2024-01-20T08:55:29.410Z,0.40
2024-01-20T08:57:59.904Z,0.40
2024-01-20T09:00:29.366Z,0.50
2024-01-20T09:03:09.119Z,0.40
2024-01-20T09:05:39.513Z,0.50
2024-01-20T09:08:13.062Z,0.40
2024-01-20T09:10:48.149Z,0.40
2024-01-20T09:13:41.529Z,0.40
2024-01-20T09:16:23.275Z,0.50
2024-01-20T09:18:53.793Z,0.50
2024-01-20T09:21:22.925Z,0.50
2024-01-20T09:23:52.201Z,0.50
2024-01-20T09:26:22.421Z,0.50
2024-01-20T09:28:51.244Z,0.60
2024-01-20T09:31:20.493Z,0.60
2024-01-20T09:33:49.224Z,0.60
2024-01-20T09:36:18.022Z,0.60
2024-01-20T09:38:48.577Z,0.60
2024-01-20T09:41:17.458Z,0.70
2024-01-20T09:43:47.725Z,0.70
2024-01-20T09:46:29.632Z,0.70
2024-01-20T09:49:01.488Z,0.70
2024-01-20T09:51:41.355Z,0.80
2024-01-20T09:54:13.336Z,0.90
2024-01-20T09:57:05.455Z,0.90
2024-01-20T09:59:36.925Z,1.00
2024-01-20T10:02:06.943Z,1.00
2024-01-20T10:04:41.126Z,1.00
2024-01-20T10:07:11.932Z,1.00
2024-01-20T10:09:51.876Z,1.00
2024-01-20T10:12:35.339Z,1.00
2024-01-20T10:15:06.545Z,1.00
2024-01-20T10:17:39.802Z,1.10
2024-01-20T10:20:09.112Z,1.10
2024-01-20T10:22:37.874Z,1.10
2024-01-20T10:25:17.119Z,1.10
2024-01-20T10:27:51.398Z,1.10
2024-01-20T10:30:23.625Z,1.10
2024-01-20T10:33:14.256Z,1.10
2024-01-20T10:35:47.661Z,1.10
2024-01-20T10:38:21.940Z,1.10
2024-01-20T10:40:55.255Z,1.20
2024-01-20T10:43:25.353Z,1.30
2024-01-20T10:46:28.620Z,1.40
2024-01-20T10:49:02.511Z,1.40
2024-01-20T10:52:06.496Z,1.40
2024-01-20T10:55:31.381Z,1.40
2024-01-20T10:58:21.407Z,1.60
2024-01-20T11:01:39.595Z,1.60
2024-01-20T11:05:27.752Z,1.90
2024-01-20T11:12:27.863Z,2.00
2024-01-20T11:15:00.800Z,2.00
2024-01-20T11:17:30.621Z,2.00
2024-01-20T11:20:09.348Z,1.90
2024-01-20T11:22:42.393Z,1.80
2024-01-20T11:25:15.956Z,1.80
2024-01-20T11:27:50.596Z,1.70
2024-01-20T11:31:03.602Z,1.60
2024-01-20T11:33:35.761Z,1.50
2024-01-20T11:36:05.079Z,1.40
2024-01-20T11:38:35.122Z,1.30
2024-01-20T11:41:04.777Z,1.20
2024-01-20T11:43:35.233Z,1.20
2024-01-20T11:46:04.502Z,1.10
2024-01-20T11:48:33.991Z,1.10
2024-01-20T11:51:03.043Z,1.10
2024-01-20T11:53:31.772Z,1.10
2024-01-20T11:56:01.813Z,1.10
2024-01-20T11:58:31.637Z,1.10
2024-01-20T12:01:03.224Z,1.20
2024-01-20T12:03:37.743Z,1.20
2024-01-20T12:06:10.672Z,1.30
2024-01-20T12:08:45.763Z,1.30
2024-01-20T12:11:20.414Z,1.40
2024-01-20T12:13:49.103Z,1.40
2024-01-20T12:16:48.827Z,1.40
2024-01-20T12:19:20.951Z,1.50
2024-01-20T12:21:50.002Z,1.60
2024-01-20T12:40:38.953Z,1.40
2024-01-20T12:43:43.002Z,1.40
2024-01-20T12:46:29.673Z,1.30
2024-01-20T12:49:09.291Z,1.50
2024-01-20T12:51:42.998Z,1.40
2024-01-20T12:57:57.005Z,1.20
2024-01-20T13:01:02.499Z,1.30
2024-01-20T13:03:36.460Z,1.20
2024-01-20T13:10:17.139Z,1.30
2024-01-20T13:12:48.712Z,1.20
2024-01-20T13:22:41.418Z,1.20
2024-01-20T13:31:01.782Z,1.20
2024-01-20T13:49:50.914Z,0.90
2024-01-20T13:52:20.794Z,0.70
2024-01-20T13:54:49.486Z,0.60
2024-01-20T13:57:20.214Z,0.60
2024-01-20T13:59:48.860Z,0.50
2024-01-20T14:02:21.812Z,0.50
2024-01-20T14:16:23.787Z,0.20
2024-01-20T14:19:15.114Z,0.30
2024-01-20T14:22:21.823Z,0.20
2024-01-20T14:24:58.094Z,0.20
2024-01-20T14:27:39.850Z,0.20
2024-01-20T14:30:12.904Z,0.20
2024-01-20T14:32:40.574Z,0.20
2024-01-20T14:35:11.103Z,0.20
2024-01-20T14:37:40.219Z,0.10
2024-01-20T14:40:10.325Z,0.10
2024-01-20T14:42:38.977Z,0.20
2024-01-20T14:45:08.433Z,0.20
2024-01-20T14:47:37.298Z,0.10
2024-01-20T14:50:08.427Z,0.10
2024-01-20T14:52:38.806Z,0.00
2024-01-20T14:55:08.464Z,0.10
2024-01-20T14:57:36.958Z,0.10
2024-01-20T15:00:10.382Z,0.10
2024-01-20T15:02:39.245Z,0.10
2024-01-20T15:05:12.261Z,0.10
2024-01-20T15:07:51.750Z,0.10
2024-01-20T15:10:31.760Z,0.10
2024-01-20T15:13:35.419Z,0.10
2024-01-20T15:16:09.156Z,0.10
2024-01-20T15:18:39.830Z,0.10
2024-01-20T15:21:11.051Z,0.10
2024-01-20T15:23:41.512Z,0.10
2024-01-20T15:26:10.358Z,0.10
2024-01-20T15:28:39.006Z,0.00
2024-01-20T15:31:09.712Z,0.10
2024-01-20T15:33:38.752Z,0.10
2024-01-20T15:36:08.140Z,0.10
2024-01-20T15:38:37.366Z,0.10
2024-01-20T15:41:09.134Z,0.10
2024-01-20T15:43:44.175Z,0.00
2024-01-20T15:46:13.224Z,0.00
2024-01-20T15:48:43.757Z,0.00
2024-01-20T15:51:13.266Z,0.00
2024-01-20T15:53:50.121Z,0.10
2024-01-20T15:56:32.359Z,-0.10
2024-01-20T15:59:10.693Z,0.10
2024-01-20T16:02:50.895Z,0.10
2024-01-20T16:14:24.622Z,0.30
2024-01-20T16:39:16.581Z,0.30
2024-01-20T20:04:42.660Z,1.30
2024-01-20T20:07:14.269Z,1.30
2024-01-20T20:09:43.231Z,1.30
2024-01-20T20:12:12.278Z,1.30
2024-01-20T20:14:59.630Z,1.30
2024-01-20T20:17:28.475Z,1.30
2024-01-20T20:19:57.293Z,1.30
2024-01-20T20:22:28.376Z,1.40
2024-01-20T20:24:57.390Z,1.40
2024-01-20T20:27:26.029Z,1.50
2024-01-20T20:29:54.804Z,1.40
2024-01-20T20:32:23.540Z,1.50
2024-01-20T20:34:54.550Z,1.40
2024-01-20T20:37:23.466Z,1.50
2024-01-20T20:39:54.218Z,1.50
2024-01-20T20:42:23.495Z,1.50
2024-01-20T20:44:54.829Z,1.50
2024-01-20T20:47:27.395Z,1.50
2024-01-20T20:49:56.066Z,1.50
2024-01-20T20:52:26.227Z,1.60
2024-01-20T20:54:56.782Z,1.60
2024-01-20T20:57:25.651Z,1.60
2024-01-20T21:00:01.134Z,1.60
2024-01-20T21:02:30.389Z,1.60
2024-01-20T21:05:03.993Z,1.60
2024-01-20T21:07:39.618Z,1.60
2024-01-20T21:10:12.683Z,1.50
2024-01-20T21:12:43.569Z,1.50
2024-01-20T21:15:29.452Z,1.40
2024-01-20T21:17:58.374Z,1.40
2024-01-20T21:20:27.452Z,1.40
2024-01-20T21:22:56.163Z,1.20
2024-01-20T21:25:30.800Z,1.20
2024-01-20T21:27:59.735Z,1.20
2024-01-20T21:30:29.659Z,1.20
2024-01-20T21:32:58.411Z,1.30
2024-01-20T21:35:27.363Z,1.40
2024-01-20T21:37:56.774Z,1.30
2024-01-20T21:40:27.709Z,1.30
2024-01-20T21:42:56.343Z,1.40
2024-01-20T21:45:24.929Z,1.40
2024-01-20T21:47:53.798Z,1.50
2024-01-20T21:50:22.751Z,1.50
2024-01-20T21:52:52.414Z,1.50
2024-01-20T21:55:21.265Z,1.50
2024-01-20T21:57:54.432Z,1.50
2024-01-20T22:00:25.367Z,1.50
2024-01-20T22:02:54.133Z,1.60
2024-01-20T22:05:24.517Z,1.60
2024-01-20T22:07:55.108Z,1.60
2024-01-20T22:10:23.709Z,1.70
2024-01-20T22:12:53.962Z,1.70
2024-01-20T22:15:23.118Z,1.70
2024-01-20T22:17:52.503Z,1.60
2024-01-20T22:20:21.316Z,1.60
2024-01-20T22:22:49.971Z,1.70
2024-01-20T22:25:18.788Z,1.60
2024-01-20T22:27:47.514Z,1.60
2024-01-20T22:30:17.735Z,1.60
2024-01-20T22:32:47.343Z,1.60
2024-01-20T22:35:15.953Z,1.60
2024-01-20T22:37:44.537Z,1.70
2024-01-20T22:40:15.956Z,1.80
2024-01-20T22:42:44.790Z,1.90
2024-01-20T22:45:13.888Z,1.80
2024-01-20T22:47:45.315Z,1.70
2024-01-20T22:50:14.357Z,1.70
2024-01-20T22:52:43.322Z,1.70
2024-01-20T22:55:12.799Z,1.60
2024-01-20T22:57:41.475Z,1.60
2024-01-20T23:00:14.422Z,1.50
2024-01-20T23:02:45.349Z,1.60
2024-01-20T23:05:14.323Z,1.60
2024-01-20T23:07:44.709Z,1.60
2024-01-20T23:10:13.559Z,1.50
2024-01-20T23:12:42.465Z,1.60
2024-01-20T23:15:11.977Z,1.60
2024-01-20T23:17:40.620Z,1.50
2024-01-20T23:20:12.012Z,1.50
2024-01-20T23:22:40.853Z,1.30
2024-01-20T23:25:10.598Z,1.20
2024-01-20T23:27:39.927Z,1.00
2024-01-20T23:30:10.108Z,0.80
2024-01-20T23:32:38.895Z,0.60
2024-01-20T23:35:10.168Z,0.50
2024-01-20T23:37:38.809Z,0.30
2024-01-20T23:40:08.103Z,0.30
2024-01-20T23:42:37.072Z,0.30
2024-01-20T23:45:06.392Z,0.20
2024-01-20T23:47:35.268Z,0.00
2024-01-20T23:50:04.110Z,-0.10
2024-01-20T23:52:35.132Z,-0.20
2024-01-20T23:55:04.470Z,-0.30
2024-01-20T23:57:34.002Z,-0.40
